createdAt,value
2018-02-04T00:01:35.073Z,30.03
2018-02-04T00:04:02.923Z,33.63
2018-02-04T00:06:30.495Z,20.43
2018-02-04T00:08:58.094Z,24.47
2018-02-04T00:11:25.731Z,21.10
2018-02-04T00:13:53.291Z,23.97
2018-02-04T00:16:20.873Z,27.30
2018-02-04T00:18:48.705Z,26.10
2018-02-04T00:21:16.280Z,19.90
2018-02-04T00:23:44.014Z,36.33
2018-02-04T00:26:11.694Z,27.37
2018-02-04T00:28:39.361Z,27.00
2018-02-04T00:31:07.000Z,35.10
2018-02-04T00:33:34.672Z,38.87
2018-02-04T00:36:02.229Z,18.10
2018-02-04T00:38:29.811Z,29.03
2018-02-04T00:40:57.422Z,16.30
2018-02-04T00:43:24.975Z,21.57
2018-02-04T00:45:52.532Z,20.00
2018-02-04T00:48:20.132Z,25.70
2018-02-04T00:50:47.709Z,20.73
2018-02-04T00:53:15.269Z,19.10
2018-02-04T00:55:43.101Z,22.13
2018-02-04T00:58:10.695Z,20.20
2018-02-04T01:00:38.361Z,22.63
2018-02-04T01:03:05.959Z,20.13
2018-02-04T01:05:33.665Z,24.87
2018-02-04T01:08:01.344Z,18.00
2018-02-04T01:10:29.211Z,34.87
2018-02-04T01:12:56.853Z,34.43
2018-02-04T01:15:24.420Z,27.13
2018-02-04T01:17:52.079Z,25.40
2018-02-04T01:20:19.646Z,22.20
2018-02-04T01:22:47.213Z,15.73
2018-02-04T01:25:14.802Z,18.10
2018-02-04T01:27:42.392Z,19.50
2018-02-04T01:30:09.942Z,14.30
2018-02-04T01:32:37.561Z,18.30
2018-02-04T01:35:05.102Z,21.37
2018-02-04T01:37:32.676Z,14.23
2018-02-04T01:40:00.288Z,8.50
2018-02-04T01:42:27.842Z,14.70
2018-02-04T01:44:55.401Z,17.90
2018-02-04T01:47:23.011Z,29.27
2018-02-04T01:49:50.780Z,31.03
2018-02-04T01:52:18.459Z,39.20
2018-02-04T01:54:46.067Z,26.13
2018-02-04T01:57:13.660Z,25.20
2018-02-04T01:59:41.207Z,19.10
2018-02-04T02:02:08.824Z,15.30
2018-02-04T02:04:36.404Z,28.20
2018-02-04T02:07:03.962Z,15.33
2018-02-04T02:09:31.671Z,30.67
2018-02-04T02:11:59.258Z,26.60
2018-02-04T02:14:26.972Z,12.43
2018-02-04T02:16:54.549Z,19.73
2018-02-04T02:19:22.333Z,14.10
2018-02-04T02:21:49.894Z,11.23
2018-02-04T02:24:17.645Z,12.83
2018-02-04T02:26:45.248Z,28.67
2018-02-04T02:29:12.812Z,12.30
2018-02-04T02:31:40.401Z,9.23
2018-02-04T02:34:07.934Z,9.07
2018-02-04T02:36:35.491Z,8.10
2018-02-04T02:39:03.129Z,6.83
2018-02-04T02:41:30.712Z,14.37
2018-02-04T02:43:58.275Z,11.77
2018-02-04T02:46:26.605Z,14.80
2018-02-04T02:48:54.165Z,4.43
2018-02-04T02:51:21.728Z,10.13
2018-02-04T02:53:49.344Z,3.20
2018-02-04T02:56:17.026Z,7.40
2018-02-04T02:58:44.722Z,3.20
2018-02-04T03:01:12.319Z,18.03
2018-02-04T03:03:39.864Z,10.73
2018-02-04T03:06:07.406Z,3.60
2018-02-04T03:08:34.988Z,6.93
2018-02-04T03:11:02.545Z,14.23
2018-02-04T03:13:30.095Z,11.37
2018-02-04T03:15:57.681Z,6.10
2018-02-04T03:18:25.370Z,4.70
2018-02-04T03:20:52.915Z,8.83
2018-02-04T03:23:20.503Z,8.00
2018-02-04T03:25:48.070Z,10.03
2018-02-04T03:28:15.615Z,10.87
2018-02-04T03:30:43.214Z,8.97
2018-02-04T03:33:10.826Z,5.87
2018-02-04T03:35:38.368Z,11.30
2018-02-04T03:38:05.965Z,6.63
2018-02-04T03:40:33.510Z,8.63
2018-02-04T03:43:01.068Z,11.93
2018-02-04T03:45:28.661Z,6.90
2018-02-04T03:47:56.234Z,18.23
2018-02-04T03:50:23.967Z,12.43
2018-02-04T03:52:51.567Z,13.77
2018-02-04T03:55:19.114Z,21.53
2018-02-04T03:57:46.677Z,20.90
2018-02-04T04:00:14.296Z,15.70
2018-02-04T04:02:41.863Z,32.80
2018-02-04T04:05:09.450Z,30.93
2018-02-04T04:07:37.393Z,21.83
2018-02-04T04:10:04.987Z,16.40
2018-02-04T04:12:32.546Z,9.53
2018-02-04T04:15:00.195Z,15.30
2018-02-04T04:17:27.856Z,13.20
2018-02-04T04:19:55.510Z,14.50
2018-02-04T04:22:23.132Z,11.10
2018-02-04T04:24:50.697Z,11.03
2018-02-04T04:27:18.244Z,11.43
2018-02-04T04:29:45.841Z,9.97
2018-02-04T04:32:13.431Z,11.20
2018-02-04T04:34:41.065Z,17.83
2018-02-04T04:37:08.676Z,9.33
2018-02-04T04:39:36.242Z,11.47
2018-02-04T04:42:03.813Z,12.10
2018-02-04T04:44:31.522Z,11.17
2018-02-04T04:46:59.084Z,16.20
2018-02-04T04:49:26.649Z,5.47
2018-02-04T04:51:54.288Z,7.90
2018-02-04T04:54:21.868Z,8.00
2018-02-04T04:56:49.484Z,7.10
2018-02-04T04:59:17.289Z,8.97
2018-02-04T05:01:45.370Z,13.83
2018-02-04T05:04:12.935Z,17.63
2018-02-04T05:06:40.523Z,8.33
2018-02-04T05:09:08.084Z,9.13
2018-02-04T05:11:35.812Z,10.23
2018-02-04T05:14:03.397Z,10.53
2018-02-04T05:16:31.071Z,8.73
2018-02-04T05:18:58.799Z,11.90
2018-02-04T05:21:26.445Z,7.07
2018-02-04T05:23:54.124Z,9.93
2018-02-04T05:26:21.754Z,15.77
2018-02-04T05:28:49.363Z,16.97
2018-02-04T05:31:16.915Z,11.23
2018-02-04T05:33:44.497Z,9.60
2018-02-04T05:36:12.105Z,18.23
2018-02-04T05:38:39.873Z,14.63
2018-02-04T05:41:07.532Z,11.50
2018-02-04T05:43:35.136Z,13.00
2018-02-04T05:46:02.680Z,11.03
2018-02-04T05:48:30.317Z,11.70
2018-02-04T05:50:58.002Z,11.50
2018-02-04T05:53:25.559Z,13.93
2018-02-04T05:55:53.282Z,11.00
2018-02-04T05:58:20.878Z,12.47
2018-02-04T06:00:48.650Z,7.87
2018-02-04T06:03:16.354Z,12.50
2018-02-04T06:05:43.987Z,17.00
2018-02-04T06:08:11.536Z,12.43
2018-02-04T06:10:39.280Z,7.40
2018-02-04T06:13:06.887Z,7.83
2018-02-04T06:15:34.623Z,6.97
2018-02-04T06:18:02.166Z,9.73
2018-02-04T06:20:29.795Z,13.83
2018-02-04T06:22:57.404Z,15.60
2018-02-04T06:25:25.026Z,8.60
2018-02-04T06:27:52.664Z,8.73
2018-02-04T06:30:20.385Z,18.40
2018-02-04T06:32:47.996Z,15.17
2018-02-04T06:35:15.606Z,14.33
2018-02-04T06:37:43.167Z,14.17
2018-02-04T06:40:10.805Z,26.90
2018-02-04T06:42:38.408Z,24.37
2018-02-04T06:45:05.975Z,21.63
2018-02-04T06:47:33.544Z,14.87
2018-02-04T06:50:01.139Z,27.93
2018-02-04T06:52:28.724Z,11.00
2018-02-04T06:54:56.351Z,13.10
2018-02-04T06:57:23.960Z,8.23
2018-02-04T06:59:51.703Z,14.87
2018-02-04T07:02:19.372Z,18.70
2018-02-04T07:04:46.961Z,9.90
2018-02-04T07:07:14.521Z,9.20
2018-02-04T07:09:42.078Z,13.03
2018-02-04T07:12:09.831Z,6.93
2018-02-04T07:14:37.475Z,7.17
2018-02-04T07:17:05.039Z,7.50
2018-02-04T07:19:32.816Z,7.63
2018-02-04T07:22:00.417Z,15.70
2018-02-04T07:24:28.112Z,11.40
2018-02-04T07:26:55.711Z,8.20
2018-02-04T07:29:23.286Z,10.37
2018-02-04T07:31:51.143Z,3.53
2018-02-04T07:34:19.234Z,3.47
2018-02-04T07:36:46.796Z,2.37
2018-02-04T07:39:14.509Z,5.07
2018-02-04T07:41:42.086Z,2.60
2018-02-04T07:44:09.644Z,1.63
2018-02-04T07:46:37.196Z,22.03
2018-02-04T07:49:04.793Z,4.10
2018-02-04T07:51:32.345Z,1.90
2018-02-04T07:53:59.897Z,5.20
2018-02-04T07:56:27.606Z,2.20
2018-02-04T07:58:55.520Z,3.20
2018-02-04T08:01:23.092Z,9.63
2018-02-04T08:03:50.920Z,5.73
2018-02-04T08:06:19.421Z,4.97
2018-02-04T08:08:47.161Z,7.70
2018-02-04T08:11:14.832Z,2.30
2018-02-04T08:13:42.374Z,6.40
2018-02-04T08:16:09.934Z,2.07
2018-02-04T08:18:37.501Z,3.13
2018-02-04T08:21:05.051Z,3.37
2018-02-04T08:23:32.728Z,2.90
2018-02-04T08:26:00.307Z,6.83
2018-02-04T08:28:27.844Z,6.17
2018-02-04T08:30:55.523Z,3.47
2018-02-04T08:33:23.376Z,3.70
2018-02-04T08:35:51.050Z,3.57
2018-02-04T08:38:18.624Z,5.03
2018-02-04T08:40:46.228Z,3.00
2018-02-04T08:43:13.801Z,2.00
2018-02-04T08:45:41.512Z,3.33
2018-02-04T08:48:09.170Z,4.47
2018-02-04T08:50:36.835Z,1.60
2018-02-04T08:53:04.486Z,5.80
2018-02-04T08:55:32.140Z,4.90
2018-02-04T08:57:59.712Z,11.83
2018-02-04T09:00:27.257Z,7.67
2018-02-04T09:02:54.926Z,4.70
2018-02-04T09:05:22.585Z,4.80
2018-02-04T09:07:50.157Z,10.00
2018-02-04T09:10:17.754Z,4.30
2018-02-04T09:12:45.415Z,6.60
2018-02-04T09:15:12.982Z,5.40
2018-02-04T09:17:40.574Z,3.33
2018-02-04T09:20:08.132Z,3.30
2018-02-04T09:22:35.806Z,4.53
2018-02-04T09:25:03.490Z,2.37
2018-02-04T09:27:31.065Z,6.10
2018-02-04T09:29:58.643Z,7.70
2018-02-04T09:32:26.481Z,31.50
2018-02-04T09:34:54.375Z,7.70
2018-02-04T09:37:21.972Z,9.70
2018-02-04T09:39:49.647Z,13.10
2018-02-04T09:42:17.214Z,2.27
2018-02-04T09:44:44.773Z,1.77
2018-02-04T09:47:12.457Z,3.27
2018-02-04T09:49:40.099Z,1.40
2018-02-04T09:52:07.667Z,4.60
2018-02-04T09:54:35.268Z,1.70
2018-02-04T09:57:02.842Z,1.60
2018-02-04T09:59:30.407Z,3.40
2018-02-04T10:01:58.220Z,2.00
2018-02-04T10:04:31.394Z,2.20
2018-02-04T10:06:59.046Z,7.30
2018-02-04T10:09:26.722Z,1.07
2018-02-04T10:11:54.410Z,5.40
2018-02-04T10:14:22.011Z,2.60
2018-02-04T10:16:49.577Z,3.40
2018-02-04T10:19:17.201Z,2.30
2018-02-04T10:21:44.844Z,10.73
2018-02-04T10:24:12.504Z,7.60
2018-02-04T10:26:40.568Z,10.87
2018-02-04T10:29:08.190Z,26.10
2018-02-04T10:31:35.766Z,51.10
2018-02-04T10:34:03.371Z,12.70
2018-02-04T10:36:30.943Z,8.17
2018-02-04T10:38:58.803Z,7.97
2018-02-04T10:41:26.433Z,14.50
2018-02-04T10:43:54.039Z,8.73
2018-02-04T10:46:21.602Z,8.33
2018-02-04T10:48:49.221Z,6.05
2018-02-04T10:51:22.276Z,3.60
2018-02-04T10:53:49.958Z,3.07
2018-02-04T10:56:17.632Z,3.57
2018-02-04T10:58:45.231Z,2.47
2018-02-04T11:01:12.816Z,6.50
2018-02-04T11:03:40.370Z,21.33
2018-02-04T11:06:07.982Z,7.20
2018-02-04T11:08:35.742Z,2.67
2018-02-04T11:11:03.545Z,2.43
2018-02-04T11:13:31.112Z,1.87
2018-02-04T11:15:58.687Z,2.57
2018-02-04T11:18:26.239Z,2.53
2018-02-04T11:20:53.777Z,4.70
2018-02-04T11:23:21.361Z,10.23
2018-02-04T11:25:48.916Z,10.53
2018-02-04T11:28:16.469Z,3.63
2018-02-04T11:30:44.033Z,8.20
2018-02-04T11:33:11.761Z,10.17
2018-02-04T11:35:39.306Z,18.67
2018-02-04T11:38:06.928Z,46.67
2018-02-04T11:40:34.531Z,39.77
2018-02-04T11:43:02.098Z,55.37
2018-02-04T11:45:29.843Z,92.57
2018-02-04T11:47:57.393Z,70.97
2018-02-04T11:50:24.980Z,39.53
2018-02-04T11:52:52.865Z,36.93
2018-02-04T11:55:20.516Z,38.43
2018-02-04T11:57:48.117Z,27.57
2018-02-04T12:00:15.745Z,50.90
2018-02-04T12:02:43.294Z,22.97
2018-02-04T12:05:10.874Z,16.80
2018-02-04T12:07:38.662Z,29.63
2018-02-04T12:10:06.263Z,54.30
2018-02-04T12:12:33.824Z,49.63
2018-02-04T12:15:01.423Z,62.37
2018-02-04T12:17:28.977Z,26.83
2018-02-04T12:19:56.529Z,23.07
2018-02-04T12:22:24.132Z,29.47
2018-02-04T12:24:51.734Z,77.97
2018-02-04T12:27:19.296Z,54.93
2018-02-04T12:29:46.878Z,62.33
2018-02-04T12:32:14.473Z,29.80
2018-02-04T12:34:42.020Z,23.07
2018-02-04T12:37:09.639Z,29.57
2018-02-04T12:39:38.034Z,72.57
2018-02-04T12:42:05.667Z,85.37
2018-02-04T12:44:33.282Z,81.73
2018-02-04T12:47:00.935Z,45.27
2018-02-04T12:49:28.536Z,37.80
2018-02-04T12:51:56.335Z,34.07
2018-02-04T12:54:23.986Z,42.40
2018-02-04T12:56:51.556Z,41.10
2018-02-04T12:59:19.132Z,37.13
2018-02-04T13:01:46.685Z,29.17
2018-02-04T13:04:14.222Z,15.77
2018-02-04T13:06:41.825Z,24.87
2018-02-04T13:09:09.562Z,22.40
2018-02-04T13:11:37.125Z,23.17
2018-02-04T13:14:04.722Z,143.33
2018-02-04T13:16:32.287Z,24.03
2018-02-04T13:18:59.856Z,29.30
2018-02-04T13:21:27.448Z,36.60
2018-02-04T13:23:55.015Z,38.37
2018-02-04T13:26:22.580Z,21.83
2018-02-04T13:28:50.249Z,25.50
2018-02-04T13:31:17.809Z,23.07
2018-02-04T13:33:45.368Z,28.57
2018-02-04T13:36:12.975Z,12.83
2018-02-04T13:38:40.557Z,10.70
2018-02-04T13:41:08.157Z,15.20
2018-02-04T13:43:35.811Z,14.57
2018-02-04T13:46:03.371Z,15.77
2018-02-04T13:48:30.941Z,13.17
2018-02-04T13:50:58.538Z,18.20
2018-02-04T13:53:26.102Z,18.00
2018-02-04T13:55:53.667Z,28.90
2018-02-04T13:58:21.341Z,18.93
2018-02-04T14:00:48.906Z,17.20
2018-02-04T14:03:16.675Z,17.10
2018-02-04T14:05:44.283Z,18.43
2018-02-04T14:08:11.840Z,8.93
2018-02-04T14:10:39.395Z,9.93
2018-02-04T14:13:07.022Z,14.17
2018-02-04T14:15:34.575Z,5.50
2018-02-04T14:18:02.116Z,8.50
2018-02-04T14:20:29.716Z,7.60
2018-02-04T14:22:57.324Z,6.60
2018-02-04T14:25:24.944Z,6.57
2018-02-04T14:27:52.585Z,9.70
2018-02-04T14:30:20.123Z,5.53
2018-02-04T14:32:47.683Z,11.20
2018-02-04T14:35:15.269Z,6.60
2018-02-04T14:37:42.863Z,11.77
2018-02-04T14:40:10.425Z,7.00
2018-02-04T14:42:38.001Z,4.90
2018-02-04T14:45:05.732Z,5.87
2018-02-04T14:47:33.333Z,17.13
2018-02-04T14:50:00.967Z,24.73
2018-02-04T14:52:28.535Z,14.43
2018-02-04T14:54:56.090Z,5.97
2018-02-04T14:57:23.702Z,13.57
2018-02-04T14:59:51.254Z,8.33
2018-02-04T15:02:18.835Z,7.67
2018-02-04T15:04:46.429Z,6.23
2018-02-04T15:07:13.996Z,8.50
2018-02-04T15:09:41.562Z,4.40
2018-02-04T15:12:09.165Z,7.00
2018-02-04T15:14:36.711Z,5.87
2018-02-04T15:17:04.277Z,11.63
2018-02-04T15:19:31.864Z,5.90
2018-02-04T15:21:59.497Z,12.33
2018-02-04T15:24:27.095Z,11.97
2018-02-04T15:26:54.700Z,11.60
2018-02-04T15:29:22.317Z,7.77
2018-02-04T15:31:49.877Z,8.50
2018-02-04T15:34:17.468Z,8.70
2018-02-04T15:36:45.041Z,13.63
2018-02-04T15:39:12.610Z,14.87
2018-02-04T15:41:40.201Z,22.50
2018-02-04T15:44:07.766Z,15.83
2018-02-04T15:46:35.326Z,18.67
2018-02-04T15:49:02.929Z,19.47
2018-02-04T15:51:30.515Z,18.03
2018-02-04T15:53:58.090Z,21.93
2018-02-04T15:56:25.709Z,17.90
2018-02-04T15:58:53.262Z,26.00
2018-02-04T16:01:20.840Z,31.30
2018-02-04T16:03:48.511Z,22.43
2018-02-04T16:06:16.072Z,15.70
2018-02-04T16:08:43.650Z,17.07
2018-02-04T16:11:11.234Z,13.97
2018-02-04T16:13:39.032Z,22.53
2018-02-04T16:16:06.592Z,23.97
2018-02-04T16:18:34.345Z,22.17
2018-02-04T16:21:02.403Z,44.80
2018-02-04T16:23:30.679Z,63.37
2018-02-04T16:25:58.870Z,92.10
2018-02-04T16:28:27.103Z,200.50
2018-02-04T16:30:55.298Z,88.13
2018-02-04T16:33:23.508Z,105.43
2018-02-04T16:35:51.817Z,98.33
2018-02-04T16:38:20.274Z,58.13
2018-02-04T16:40:49.210Z,40.13
2018-02-04T16:43:18.144Z,30.67
2018-02-04T16:45:48.325Z,45.40
2018-02-04T16:48:16.896Z,33.30
2018-02-04T16:50:45.748Z,30.73
2018-02-04T16:53:13.489Z,47.30
2018-02-04T16:55:41.570Z,56.00
2018-02-04T16:58:09.943Z,43.27
2018-02-04T17:00:37.805Z,34.10
2018-02-04T17:03:05.381Z,44.27
2018-02-04T17:05:33.317Z,89.53
2018-02-04T17:08:01.112Z,40.17
2018-02-04T17:10:29.160Z,42.40
2018-02-04T17:12:57.032Z,40.70
2018-02-04T17:15:24.684Z,43.60
2018-02-04T17:17:52.267Z,50.97
2018-02-04T17:20:19.850Z,47.17
2018-02-04T17:22:47.430Z,30.43
2018-02-04T17:25:15.025Z,35.30
2018-02-04T17:27:42.788Z,36.90
2018-02-04T17:30:10.635Z,31.87
2018-02-04T17:32:38.194Z,30.00
2018-02-04T17:35:05.789Z,66.50
2018-02-04T17:37:33.453Z,62.93
2018-02-04T17:40:01.301Z,65.50
2018-02-04T17:42:28.848Z,51.17
2018-02-04T17:44:57.058Z,42.90
2018-02-04T17:47:24.783Z,40.53
2018-02-04T17:49:52.400Z,37.23
2018-02-04T17:52:20.030Z,34.63
2018-02-04T17:54:47.681Z,39.00
2018-02-04T17:57:15.268Z,39.37
2018-02-04T17:59:42.867Z,48.93
2018-02-04T18:02:10.430Z,43.10
2018-02-04T18:04:37.982Z,62.53
2018-02-04T18:07:05.593Z,56.07
2018-02-04T18:09:33.811Z,43.40
2018-02-04T18:12:01.378Z,42.07
2018-02-04T18:14:29.815Z,44.77
2018-02-04T18:16:57.388Z,108.50
2018-02-04T18:19:25.074Z,66.87
2018-02-04T18:21:52.666Z,167.33
2018-02-04T18:24:20.348Z,147.83
2018-02-04T18:26:47.961Z,173.03
2018-02-04T18:29:15.600Z,97.33
2018-02-04T18:31:43.159Z,59.90
2018-02-04T18:34:10.817Z,85.30
2018-02-04T18:36:38.619Z,63.50
2018-02-04T18:39:06.182Z,91.17
2018-02-04T18:41:33.759Z,63.67
2018-02-04T18:44:01.441Z,93.50
2018-02-04T18:46:29.746Z,269.20
2018-02-04T18:48:57.393Z,446.90
2018-02-04T18:51:25.012Z,176.60
2018-02-04T18:53:52.696Z,80.47
2018-02-04T18:56:20.479Z,61.90
2018-02-04T18:58:48.260Z,60.30
2018-02-04T19:01:15.921Z,60.93
2018-02-04T19:03:43.553Z,56.57
2018-02-04T19:06:11.147Z,58.70
2018-02-04T19:08:38.706Z,72.90
2018-02-04T19:11:06.367Z,66.67
2018-02-04T19:13:33.956Z,90.47
2018-02-04T19:16:01.673Z,88.07
2018-02-04T19:18:29.340Z,109.37
2018-02-04T19:20:56.937Z,93.70
2018-02-04T19:23:24.511Z,86.20
2018-02-04T19:25:52.082Z,88.60
2018-02-04T19:28:19.675Z,99.63
2018-02-04T19:30:47.243Z,56.27
2018-02-04T19:33:14.804Z,57.07
2018-02-04T19:35:42.558Z,97.83
2018-02-04T19:38:10.132Z,61.43
2018-02-04T19:40:37.869Z,73.07
2018-02-04T19:43:05.468Z,72.43
2018-02-04T19:45:33.021Z,74.17
2018-02-04T19:48:00.575Z,75.73
2018-02-04T19:50:28.190Z,57.43
2018-02-04T19:52:55.767Z,43.40
2018-02-04T19:55:23.324Z,47.30
2018-02-04T19:57:50.920Z,45.90
2018-02-04T20:00:18.587Z,73.03
2018-02-04T20:02:46.140Z,104.70
2018-02-04T20:05:13.741Z,57.13
2018-02-04T20:07:41.366Z,55.60
2018-02-04T20:10:09.339Z,41.60
2018-02-04T20:12:36.934Z,52.37
2018-02-04T20:15:04.744Z,41.53
2018-02-04T20:17:34.062Z,52.13
2018-02-04T20:20:01.714Z,51.33
2018-02-04T20:22:29.264Z,74.40
2018-02-04T20:24:56.806Z,43.50
2018-02-04T20:27:24.388Z,44.77
2018-02-04T20:29:51.963Z,45.60
2018-02-04T20:32:31.189Z,43.17
2018-02-04T20:35:00.400Z,41.10
2018-02-04T20:37:28.032Z,41.93
2018-02-04T20:39:55.706Z,54.73
2018-02-04T20:42:23.382Z,45.60
2018-02-04T20:44:51.237Z,102.63
2018-02-04T20:47:18.896Z,126.77
2018-02-04T20:49:47.101Z,128.30
2018-02-04T20:52:15.436Z,102.27
2018-02-04T20:54:43.162Z,92.40
2018-02-04T20:57:10.724Z,77.27
2018-02-04T20:59:38.510Z,60.60
2018-02-04T21:02:06.102Z,106.63
2018-02-04T21:04:33.662Z,64.13
2018-02-04T21:07:01.232Z,58.63
2018-02-04T21:09:28.859Z,65.57
2018-02-04T21:11:56.410Z,65.07
2018-02-04T21:14:23.992Z,60.13
2018-02-04T21:16:51.604Z,108.57
2018-02-04T21:19:19.316Z,134.90
2018-02-04T21:21:47.004Z,110.27
2018-02-04T21:24:14.631Z,92.83
2018-02-04T21:26:42.260Z,93.23
2018-02-04T21:29:10.003Z,103.50
2018-02-04T21:31:38.081Z,89.43
2018-02-04T21:34:05.913Z,92.87
2018-02-04T21:36:33.598Z,92.97
2018-02-04T21:39:01.194Z,72.07
2018-02-04T21:41:28.764Z,71.63
2018-02-04T21:43:56.315Z,71.90
2018-02-04T21:46:23.901Z,80.03
2018-02-04T21:48:51.463Z,95.30
2018-02-04T21:51:19.013Z,71.57
2018-02-04T21:53:46.592Z,76.40
2018-02-04T21:56:14.145Z,84.77
2018-02-04T21:58:41.695Z,53.40
2018-02-04T22:01:09.299Z,43.90
2018-02-04T22:03:36.886Z,50.83
2018-02-04T22:06:04.464Z,73.93
2018-02-04T22:08:32.078Z,48.40
2018-02-04T22:10:59.632Z,54.20
2018-02-04T22:13:27.202Z,61.33
2018-02-04T22:15:54.794Z,66.10
2018-02-04T22:18:22.363Z,62.10
2018-02-04T22:20:49.938Z,79.90
2018-02-04T22:23:17.525Z,76.93
2018-02-04T22:25:45.283Z,84.37
2018-02-04T22:28:12.843Z,56.77
2018-02-04T22:30:40.421Z,57.97
2018-02-04T22:33:08.027Z,51.17
2018-02-04T22:35:35.831Z,66.70
2018-02-04T22:38:03.387Z,59.17
2018-02-04T22:40:30.986Z,67.10
2018-02-04T22:42:58.534Z,82.50
2018-02-04T22:45:26.252Z,57.17
2018-02-04T22:47:53.850Z,72.03
2018-02-04T22:50:21.404Z,64.40
2018-02-04T22:52:48.996Z,56.80
2018-02-04T22:55:16.612Z,53.47
2018-02-04T22:57:44.198Z,54.20
2018-02-04T23:00:11.832Z,50.63
2018-02-04T23:02:39.409Z,48.37
2018-02-04T23:05:06.971Z,51.63
2018-02-04T23:07:34.840Z,63.57
2018-02-04T23:10:02.420Z,66.83
2018-02-04T23:12:29.982Z,54.30
2018-02-04T23:14:57.533Z,59.57
2018-02-04T23:17:25.119Z,43.27
2018-02-04T23:19:52.685Z,45.73
2018-02-04T23:22:20.234Z,61.63
2018-02-04T23:24:48.062Z,47.13
2018-02-04T23:27:15.648Z,52.63
2018-02-04T23:29:43.211Z,66.20
2018-02-04T23:32:10.835Z,53.33
2018-02-04T23:34:38.412Z,55.90
2018-02-04T23:37:05.974Z,61.87
2018-02-04T23:39:33.797Z,47.10
2018-02-04T23:42:01.484Z,42.13
2018-02-04T23:44:29.040Z,54.17
2018-02-04T23:46:56.630Z,55.93
2018-02-04T23:49:24.185Z,57.63
2018-02-04T23:51:51.751Z,59.63
2018-02-04T23:54:19.344Z,54.13
2018-02-04T23:56:46.902Z,60.93
2018-02-04T23:59:14.463Z,53.73
